Time;durP1;ratioP1;P1;durP2;ratioP2;P2;SDS_P1;SDS_P2;PMS_P1;PMS_P2;Temp;Humidity;BMP_temperature;BMP_pressure;BME280_temperature;BME280_humidity;BME280_pressure;Samples;Min_cycle;Max_cycle;Signal;HPM_P1;HPM_P2
2023/04/05 00:01:57;;;;;;;8.73;6.93;;;;;;;-0.76;100.00;61921.13;5007147;28;20258;-81
2023/04/05 00:04:24;;;;;;;10.25;7.97;;;;;;;-0.73;100.00;61924.72;5008373;28;20231;-80
2023/04/05 00:06:52;;;;;;;6.55;5.53;;;;;;;-0.52;100.00;61943.69;5008887;28;20238;-81
2023/04/05 00:09:20;;;;;;;9.32;7.82;;;;;;;-0.42;100.00;61955.94;5008809;28;20203;-82
2023/04/05 00:11:48;;;;;;;8.05;6.53;;;;;;;-0.63;100.00;61934.44;5009296;28;20336;-80
2023/04/05 00:14:15;;;;;;;10.57;6.60;;;;;;;-0.49;100.00;61946.78;5011116;28;20200;-80
2023/04/05 00:16:43;;;;;;;5.28;4.78;;;;;;;-0.57;100.00;61945.59;5009139;28;20282;-81
2023/04/05 00:19:11;;;;;;;5.85;5.32;;;;;;;-0.50;100.00;61950.75;5008852;28;20283;-82
2023/04/05 00:21:39;;;;;;;11.48;7.60;;;;;;;-0.59;100.00;61941.56;5008090;28;20524;-81
2023/04/05 00:24:14;;;;;;;11.77;8.00;;;;;;;-0.51;100.00;61949.22;5008640;28;20234;-79
2023/04/05 00:26:43;;;;;;;9.25;5.53;;;;;;;-0.48;100.00;61950.31;5010342;28;20214;-82
2023/04/05 00:29:11;;;;;;;10.73;8.00;;;;;;;-0.56;100.00;61942.13;5010690;28;20196;-83
2023/04/05 00:31:38;;;;;;;7.35;5.78;;;;;;;-0.70;100.00;61930.28;5010409;28;20219;-83
2023/04/05 00:34:07;;;;;;;8.95;8.05;;;;;;;-0.61;100.00;61937.00;5008907;28;20203;-81
2023/04/05 00:36:38;;;;;;;5.38;4.75;;;;;;;-0.76;100.00;61926.13;5009164;28;20215;-82
2023/04/05 00:39:05;;;;;;;9.75;6.63;;;;;;;-0.75;100.00;61920.16;5009908;28;20210;-83
2023/04/05 00:41:35;;;;;;;8.10;6.80;;;;;;;-0.96;100.00;61898.66;5009400;28;20219;-81
2023/04/05 00:44:06;;;;;;;8.43;6.13;;;;;;;-0.58;100.00;61935.06;5012339;28;20223;-81
2023/04/05 00:46:35;;;;;;;6.50;5.55;;;;;;;-1.07;100.00;61887.38;4996802;28;20224;-83
2023/04/05 00:49:06;;;;;;;9.23;6.90;;;;;;;-0.79;100.00;61918.56;4992694;28;20205;-83
2023/04/05 00:51:34;;;;;;;10.23;6.90;;;;;;;-0.56;100.00;61942.13;5009250;28;20235;-82
2023/04/05 00:56:52;;;;;;;7.70;5.75;;;;;;;-0.97;100.00;61902.13;5874709;23;20341;-82
2023/04/05 01:02:15;;;;;;;9.07;6.70;;;;;;;-0.54;100.00;61941.16;5546590;23;20245;-80
2023/04/05 01:04:48;;;;;;;8.82;6.63;;;;;;;-0.62;100.00;61937.97;4937868;29;20202;-81
2023/04/05 01:07:28;;;;;;;10.13;7.10;;;;;;;-0.61;100.00;61939.50;4920018;29;20203;-83
2023/04/05 01:09:58;;;;;;;8.32;6.53;;;;;;;-0.58;100.00;61942.06;4938277;29;20209;-81
2023/04/05 01:12:33;;;;;;;8.00;6.53;;;;;;;-0.49;100.00;61944.28;4939749;29;20206;-80
2023/04/05 01:15:04;;;;;;;6.78;6.18;;;;;;;-0.59;100.00;61941.03;4941838;29;20189;-82
2023/04/05 01:17:35;;;;;;;8.60;6.47;;;;;;;-0.56;100.00;61949.09;4941631;28;20208;-83
2023/04/05 01:20:09;;;;;;;8.10;6.80;;;;;;;-0.53;100.00;61947.16;4942113;28;20270;-81
2023/04/05 01:23:14;;;;;;;7.13;6.38;;;;;;;-0.64;100.00;61933.41;4940505;29;20230;-82
2023/04/05 01:26:21;;;;;;;8.13;6.18;;;;;;;-0.63;100.00;61931.94;4906531;29;20229;-83
2023/04/05 01:29:31;;;;;;;6.10;5.60;;;;;;;-0.58;100.00;61942.56;4923342;29;20222;-83
2023/04/05 01:32:03;;;;;;;6.68;5.45;;;;;;;-0.32;100.00;61966.69;4925191;29;20315;-80
2023/04/05 01:34:40;;;;;;;8.23;5.70;;;;;;;-0.32;100.00;61966.69;4934632;29;20283;-82
2023/04/05 01:37:12;;;;;;;6.82;5.43;;;;;;;-0.31;100.00;61964.72;4936632;29;20273;-83
2023/04/05 01:39:40;;;;;;;7.25;5.50;;;;;;;-0.42;100.00;61956.47;4936548;29;20202;-81
2023/04/05 01:42:08;;;;;;;5.57;5.00;;;;;;;-0.32;100.00;61968.69;4925330;29;20223;-80
2023/04/05 01:44:35;;;;;;;5.60;4.60;;;;;;;-0.37;100.00;61961.06;4917386;29;20285;-81
2023/04/05 01:47:03;;;;;;;6.40;5.65;;;;;;;-0.76;100.00;61918.63;4933790;29;20222;-82
2023/04/05 01:49:30;;;;;;;4.88;2.83;;;;;;;-0.73;100.00;61924.19;4933314;29;20249;-82
2023/04/05 01:51:59;;;;;;;5.40;4.90;;;;;;;-0.71;100.00;61929.25;4934216;29;20222;-82
2023/04/05 01:54:26;;;;;;;5.63;5.18;;;;;;;-0.89;100.00;61910.81;4933191;29;20214;-82
2023/04/05 01:56:53;;;;;;;4.88;4.30;;;;;;;-0.87;100.00;61902.88;4935342;29;20218;-83
2023/04/05 01:59:22;;;;;;;6.40;5.75;;;;;;;-0.80;100.00;61920.03;4931600;29;20245;-82
2023/04/05 02:01:51;;;;;;;6.65;5.40;;;;;;;-0.69;100.00;61931.28;4916170;29;20233;-83
2023/04/05 02:04:19;;;;;;;5.72;5.22;;;;;;;-0.56;100.00;61942.13;4929811;29;20238;-82
2023/04/05 02:06:46;;;;;;;3.90;3.60;;;;;;;-0.93;100.00;61906.22;4933119;29;20586;-81
2023/04/05 02:09:13;;;;;;;5.47;4.70;;;;;;;-1.06;100.00;61888.44;4928057;29;20214;-83
2023/04/05 02:11:40;;;;;;;5.10;4.63;;;;;;;-0.54;100.00;61943.66;4933501;29;20278;-83
2023/04/05 02:14:09;;;;;;;2.70;2.50;;;;;;;-0.94;100.00;61905.72;4930626;29;20223;-82
2023/04/05 02:16:36;;;;;;;4.25;3.38;;;;;;;-1.04;100.00;61897.44;4914123;29;20222;-80
2023/04/05 02:19:04;;;;;;;3.72;3.00;;;;;;;-0.72;100.00;61928.22;4916643;29;20206;-82
2023/04/05 02:21:35;;;;;;;4.72;4.28;;;;;;;-0.41;100.00;61962.47;4932336;29;20258;-82
2023/04/05 02:24:02;;;;;;;3.90;3.58;;;;;;;-0.50;100.00;61948.25;4937415;29;20233;-81
2023/04/05 02:26:29;;;;;;;4.32;3.92;;;;;;;-0.36;100.00;61965.09;4933592;29;20269;-79
2023/04/05 02:28:56;;;;;;;4.53;4.13;;;;;;;-0.29;100.00;61971.75;4933994;29;20202;-81
2023/04/05 02:31:23;;;;;;;4.55;4.20;;;;;;;-0.39;100.00;61959.00;4934640;29;20221;-83
2023/04/05 02:33:53;;;;;;;4.00;3.63;;;;;;;-0.49;100.00;61953.78;4933574;29;20240;-81
2023/04/05 02:36:21;;;;;;;4.28;3.97;;;;;;;-0.74;100.00;61926.19;4933688;29;20206;-81
2023/04/05 02:38:49;;;;;;;3.45;3.08;;;;;;;-0.61;100.00;61938.97;4931808;29;20217;-80
2023/04/05 02:41:16;;;;;;;4.53;3.75;;;;;;;-0.70;100.00;61922.25;4935072;29;20546;-81
2023/04/05 02:43:43;;;;;;;5.22;4.35;;;;;;;-0.78;100.00;61922.09;4934293;29;20380;-80
2023/04/05 02:46:11;;;;;;;5.38;4.88;;;;;;;-0.73;100.00;61924.19;4932339;29;20383;-83
2023/04/05 02:48:39;;;;;;;4.40;4.00;;;;;;;-0.66;100.00;61926.38;4931843;29;20206;-81
2023/04/05 02:51:05;;;;;;;5.13;3.85;;;;;;;-0.64;100.00;61933.41;4934681;29;20396;-82
2023/04/05 02:53:33;;;;;;;4.65;4.20;;;;;;;-0.71;100.00;61929.25;4931781;29;20226;-82
2023/04/05 02:56:04;;;;;;;4.13;3.83;;;;;;;-0.58;100.00;61937.06;4931943;29;20203;-83
2023/04/05 02:58:31;;;;;;;4.50;4.07;;;;;;;-0.67;100.00;61927.84;4931141;29;20538;-85
2023/04/05 03:01:00;;;;;;;3.85;3.55;;;;;;;-0.69;100.00;61933.28;4921548;29;20214;-81
2023/04/05 03:03:28;;;;;;;4.22;3.85;;;;;;;-0.61;100.00;61934.50;4914364;29;20222;-83
2023/04/05 03:06:00;;;;;;;3.95;3.55;;;;;;;-0.61;100.00;61942.00;4918439;29;20202;-80
2023/04/05 03:08:27;;;;;;;4.90;4.50;;;;;;;-0.66;100.00;61936.38;4931790;29;20238;-78
2023/04/05 03:10:54;;;;;;;4.50;4.20;;;;;;;-0.63;100.00;61934.44;4933078;29;20210;-83
2023/04/05 03:13:23;;;;;;;3.40;3.10;;;;;;;-0.39;100.00;61962.03;4932049;29;20245;-83
2023/04/05 03:15:54;;;;;;;3.38;3.13;;;;;;;-0.51;100.00;61951.72;4932183;29;20233;-81
2023/04/05 03:18:21;;;;;;;4.03;3.72;;;;;;;-0.53;100.00;61949.66;4923188;29;20219;-83
2023/04/05 03:20:49;;;;;;;3.50;3.30;;;;;;;-0.57;100.00;61941.09;4913995;29;20210;-83
2023/04/05 03:23:16;;;;;;;3.53;3.25;;;;;;;-0.42;100.00;61953.97;4914274;29;20225;-82
2023/04/05 03:25:43;;;;;;;3.58;3.28;;;;;;;-0.41;100.00;61954.47;4934674;29;20209;-84
2023/04/05 03:28:10;;;;;;;2.50;2.40;;;;;;;-0.40;100.00;61958.00;4932294;29;20226;-81
2023/04/05 03:30:38;;;;;;;3.75;3.38;;;;;;;-0.54;100.00;61944.16;4931603;29;20202;-82
2023/04/05 03:33:06;;;;;;;3.75;3.45;;;;;;;-0.47;100.00;61951.34;4926438;29;20544;-81
2023/04/05 03:35:34;;;;;;;4.03;3.63;;;;;;;-0.45;100.00;61955.38;4915538;29;20206;-82
2023/04/05 03:38:01;;;;;;;4.28;3.38;;;;;;;-0.62;100.00;61938.47;4933033;29;20590;-81
2023/04/05 03:40:28;;;;;;;4.07;3.72;;;;;;;-0.58;100.00;61942.06;4932376;29;20235;-80
2023/04/05 03:42:55;;;;;;;3.90;3.60;;;;;;;-0.53;100.00;61944.66;4920792;29;20245;-79
2023/04/05 03:45:23;;;;;;;4.45;4.07;;;;;;;-0.58;100.00;61942.56;4914471;29;20241;-83
2023/04/05 03:47:56;;;;;;;5.25;4.75;;;;;;;-0.53;100.00;61950.19;4912505;29;20287;-81
2023/04/05 03:50:23;;;;;;;4.45;3.95;;;;;;;-1.04;100.00;61889.97;4912880;29;20202;-82
2023/04/05 03:52:50;;;;;;;6.60;4.53;;;;;;;-0.57;100.00;61943.59;4930017;29;20226;-80
2023/04/05 03:55:17;;;;;;;4.25;3.95;;;;;;;-0.39;100.00;61959.53;4916592;29;20227;-82
2023/04/05 03:57:45;;;;;;;5.05;4.55;;;;;;;-0.30;100.00;61971.25;4913730;29;20218;-82
2023/04/05 04:00:13;;;;;;;4.78;4.32;;;;;;;-0.40;100.00;61955.50;4918800;29;20218;-83
2023/04/05 04:02:43;;;;;;;3.13;2.80;;;;;;;-0.46;100.00;61952.34;4935126;29;20229;-82
2023/04/05 04:05:12;;;;;;;6.22;3.70;;;;;;;-0.79;100.00;61920.53;4930573;29;20297;-81
2023/04/05 04:07:40;;;;;;;3.15;2.95;;;;;;;-0.72;100.00;61925.22;4931300;29;20360;-83
2023/04/05 04:10:09;;;;;;;4.40;4.10;;;;;;;-0.59;100.00;61941.03;4923986;29;20202;-81
2023/04/05 04:12:36;;;;;;;4.78;4.10;;;;;;;-0.71;100.00;61923.75;4914609;29;20286;-82
2023/04/05 04:15:05;;;;;;;4.82;4.25;;;;;;;-0.60;100.00;61938.00;4932437;29;20206;-80
2023/04/05 04:17:35;;;;;;;7.25;5.30;;;;;;;-0.79;100.00;61921.06;4931908;29;20422;-82
2023/04/05 04:20:06;;;;;;;6.47;5.40;;;;;;;-0.68;100.00;61932.34;4928517;29;20273;-82
2023/04/05 04:22:37;;;;;;;8.85;6.20;;;;;;;-0.48;100.00;61954.78;4941544;29;20218;-82
2023/04/05 04:25:08;;;;;;;5.82;5.22;;;;;;;-0.55;100.00;61940.13;4950895;29;20241;-83
2023/04/05 04:27:38;;;;;;;7.90;6.32;;;;;;;-0.60;100.00;61938.00;4936649;29;20561;-83
2023/04/05 04:30:09;;;;;;;6.63;5.78;;;;;;;-0.53;100.00;61945.19;4922144;29;20480;-82
2023/04/05 04:32:56;;;;;;;4.03;3.78;;;;;;;-0.40;100.00;61958.00;4920892;29;20234;-80
2023/04/05 04:35:24;;;;;;;8.98;4.60;;;;;;;-0.50;100.00;61948.25;4912757;29;20210;-81
2023/04/05 04:37:56;;;;;;;6.38;5.40;;;;;;;-0.39;100.00;61956.50;4931020;29;20245;-80
2023/04/05 04:40:25;;;;;;;6.70;5.55;;;;;;;-0.41;100.00;61954.97;4931204;29;20198;-81
2023/04/05 04:42:52;;;;;;;4.72;4.32;;;;;;;-0.28;100.00;61972.78;4930818;29;20278;-81
2023/04/05 04:45:20;;;;;;;3.40;3.10;;;;;;;-0.10;100.00;61989.25;4920403;29;20245;-82
2023/04/05 04:47:48;;;;;;;3.40;3.10;;;;;;;-0.20;100.00;61979.00;4934760;29;20289;-81
2023/04/05 04:50:18;;;;;;;4.18;3.67;;;;;;;-0.05;100.00;61996.34;4934176;29;20225;-81
2023/04/05 04:52:46;;;;;;;2.80;2.60;;;;;;;-0.15;100.00;61981.09;4927658;29;20237;-82
2023/04/05 04:55:15;;;;;;;2.90;2.70;;;;;;;-0.08;100.00;61993.28;4930331;29;20205;-80
2023/04/05 04:57:42;;;;;;;2.05;1.95;;;;;;;-0.07;100.00;61994.31;4928144;29;20227;-80
2023/04/05 05:00:12;;;;;;;1.45;1.40;;;;;;;0.27;100.00;62028.63;4928765;29;20253;-83
2023/04/05 05:02:41;;;;;;;1.67;1.67;;;;;;;0.35;100.00;62036.81;4934192;29;20420;-80
2023/04/05 05:05:09;;;;;;;1.77;1.67;;;;;;;0.23;100.00;62024.53;4916622;29;20246;-82
2023/04/05 05:07:37;;;;;;;1.60;1.50;;;;;;;0.15;100.00;62011.31;4930140;29;20230;-84
2023/04/05 05:10:06;;;;;;;1.23;1.20;;;;;;;-0.12;100.00;61989.16;4934336;29;20205;-80
2023/04/05 05:12:35;;;;;;;3.50;1.77;;;;;;;0.05;100.00;62008.59;4933568;29;20222;-83
2023/04/05 05:15:01;;;;;;;2.22;2.03;;;;;;;-0.10;100.00;61989.25;4933760;29;20210;-81
2023/04/05 05:17:31;;;;;;;2.20;2.03;;;;;;;-0.13;100.00;61988.66;4934035;29;20226;-83
2023/04/05 05:20:00;;;;;;;2.28;2.17;;;;;;;-0.14;100.00;61987.13;4934466;29;20212;-80
2023/04/05 05:22:26;;;;;;;1.70;1.60;;;;;;;-0.11;100.00;61987.69;4941162;29;20285;-80
2023/04/05 05:24:53;;;;;;;2.65;2.53;;;;;;;-0.11;100.00;61993.22;4951763;29;20237;-80
2023/04/05 05:27:21;;;;;;;1.80;1.70;;;;;;;-0.05;100.00;61996.84;4933012;29;20272;-81
2023/04/05 05:29:50;;;;;;;2.45;2.35;;;;;;;-0.29;100.00;61972.28;4932344;29;20374;-83
2023/04/05 05:32:17;;;;;;;3.33;3.13;;;;;;;-0.15;100.00;61984.13;4933600;29;20250;-82
2023/04/05 05:34:44;;;;;;;3.65;3.30;;;;;;;0.03;100.00;61999.56;4936983;29;20202;-82
2023/04/05 05:37:12;;;;;;;2.15;2.03;;;;;;;-0.14;100.00;61987.13;4935945;29;20285;-82
2023/04/05 05:39:39;;;;;;;3.88;3.17;;;;;;;-0.07;100.00;61994.31;4932913;29;20258;-83
2023/04/05 05:42:06;;;;;;;3.85;3.55;;;;;;;-0.12;100.00;61991.66;4932842;29;20294;-83
2023/04/05 05:44:34;;;;;;;2.00;1.90;;;;;;;-0.06;100.00;61997.81;4936066;29;20451;-82
2023/04/05 05:47:03;;;;;;;3.58;3.28;;;;;;;-0.23;100.00;61975.41;4934636;29;20209;-82
2023/04/05 05:49:31;;;;;;;3.78;3.47;;;;;;;-0.14;100.00;61985.13;4930404;29;20202;-83
2023/04/05 05:51:58;;;;;;;3.08;2.88;;;;;;;0.01;100.00;62000.00;4926766;29;20218;-81
2023/04/05 05:54:25;;;;;;;4.93;2.70;;;;;;;-0.02;100.00;61996.94;4928419;29;20202;-79
2023/04/05 05:56:53;;;;;;;2.92;2.63;;;;;;;0.19;100.00;62018.44;4929475;29;20219;-81
2023/04/05 05:59:19;;;;;;;2.35;2.25;;;;;;;0.29;100.00;62028.69;4929240;29;20209;-80
2023/04/05 06:01:47;;;;;;;1.60;1.50;;;;;;;0.41;100.00;62043.00;4931642;29;20233;-80
2023/04/05 06:04:15;;;;;;;2.03;1.23;;;;;;;0.46;100.00;62048.63;4926299;29;20256;-80
2023/04/05 06:06:45;;;;;;;2.05;1.45;;;;;;;0.38;100.00;62040.41;4928249;29;20279;-80
2023/04/05 06:09:12;;;;;;;1.00;1.00;;;;;;;0.63;100.00;62066.06;4931913;29;20210;-82
2023/04/05 06:11:39;;;;;;;1.35;1.08;;;;;;;0.76;100.00;62073.88;4930441;29;20218;-80
2023/04/05 06:14:06;;;;;;;0.80;0.80;;;;;;;0.93;100.00;62096.31;4931548;29;20221;-79
2023/04/05 06:16:34;;;;;;;1.00;1.00;;;;;;;0.86;100.00;62089.13;4931843;29;20269;-79
2023/04/05 06:19:01;;;;;;;1.05;1.05;;;;;;;0.93;100.00;62094.31;4927587;29;20202;-81
2023/04/05 06:21:30;;;;;;;0.80;0.80;;;;;;;1.25;99.18;62126.63;4922413;29;20205;-81
2023/04/05 06:23:56;;;;;;;1.35;1.25;;;;;;;1.31;100.00;62132.78;4927847;29;20212;-78
2023/04/05 06:26:26;;;;;;;1.33;1.25;;;;;;;1.46;97.93;62150.16;4933516;29;20234;-80
2023/04/05 06:28:53;;;;;;;1.10;1.00;;;;;;;1.41;95.98;62147.53;4931842;29;20424;-79
2023/04/05 06:31:21;;;;;;;1.10;1.10;;;;;;;1.51;94.88;62155.81;4928695;29;20198;-79
2023/04/05 06:33:48;;;;;;;0.63;0.63;;;;;;;1.65;92.50;62170.19;4929256;29;20260;-79
2023/04/05 06:36:15;;;;;;;1.35;0.93;;;;;;;1.76;94.18;62180.97;4926770;29;20512;-80
2023/04/05 06:38:43;;;;;;;1.00;0.93;;;;;;;1.72;93.92;62174.88;4930524;29;20226;-79
2023/04/05 06:41:10;;;;;;;0.57;0.57;;;;;;;1.39;94.82;62141.00;4924124;29;20203;-80
2023/04/05 06:43:37;;;;;;;1.25;0.80;;;;;;;1.60;93.40;62159.53;4912785;29;20199;-81
2023/04/05 06:46:07;;;;;;;1.10;1.10;;;;;;;1.97;92.44;62200.00;4913659;29;20241;-79
2023/04/05 06:48:34;;;;;;;0.52;0.52;;;;;;;1.73;92.06;62172.84;4930890;29;20281;-79
2023/04/05 06:51:04;;;;;;;0.77;0.77;;;;;;;1.53;94.66;62157.34;4917242;29;20237;-80
2023/04/05 06:53:31;;;;;;;0.50;0.50;;;;;;;1.80;89.94;62185.06;4911463;29;20223;-79
2023/04/05 06:55:59;;;;;;;1.00;0.65;;;;;;;2.04;90.57;62207.19;4911076;29;20206;-79
2023/04/05 06:58:27;;;;;;;0.70;0.70;;;;;;;1.92;90.80;62197.38;4945086;29;20221;-79
2023/04/05 07:00:54;;;;;;;0.73;0.73;;;;;;;1.99;91.83;62197.03;4950343;29;20200;-79
2023/04/05 07:03:21;;;;;;;0.82;0.82;;;;;;;1.79;92.01;62181.53;4949237;29;20233;-79
2023/04/05 07:05:53;;;;;;;0.60;0.60;;;;;;;2.04;87.41;62210.22;4931652;29;20229;-79
2023/04/05 07:08:20;;;;;;;1.23;0.50;;;;;;;2.06;87.17;62206.75;4932580;29;20258;-78
2023/04/05 07:10:48;;;;;;;0.80;0.80;;;;;;;2.04;89.10;62204.69;4924706;29;20203;-80
2023/04/05 07:13:17;;;;;;;0.73;0.73;;;;;;;1.78;89.57;62183.53;4930220;29;20226;-79
2023/04/05 07:15:44;;;;;;;0.80;0.80;;;;;;;1.84;90.37;62186.66;4928974;29;20206;-78
2023/04/05 07:18:14;;;;;;;1.05;1.05;;;;;;;1.72;93.91;62179.88;4926090;29;20229;-80
2023/04/05 07:20:41;;;;;;;0.90;0.90;;;;;;;1.67;94.86;62167.22;4930799;29;20209;-80
2023/04/05 07:23:08;;;;;;;0.98;0.85;;;;;;;1.60;93.49;62159.53;4929800;29;20226;-79
2023/04/05 07:25:35;;;;;;;1.23;0.93;;;;;;;1.62;95.39;62164.09;4925973;29;20293;-79
2023/04/05 07:28:02;;;;;;;0.55;0.55;;;;;;;1.72;91.55;62176.84;4929612;29;20242;-80
2023/04/05 07:30:31;;;;;;;0.82;0.82;;;;;;;1.71;91.92;62171.31;4930645;29;20210;-79
2023/04/05 07:32:58;;;;;;;0.93;0.88;;;;;;;1.61;94.59;62166.06;4932225;29;20534;-79
2023/04/05 07:35:25;;;;;;;0.73;0.73;;;;;;;1.69;96.02;62171.78;4930731;29;20242;-78
2023/04/05 07:37:52;;;;;;;1.15;1.15;;;;;;;1.42;97.06;62146.06;4928620;29;20269;-78
2023/04/05 07:40:19;;;;;;;0.80;0.80;;;;;;;1.38;97.96;62139.47;4928624;29;20242;-79
2023/04/05 07:42:46;;;;;;;0.65;0.65;;;;;;;1.03;99.27;62104.56;4928229;29;20230;-78
2023/04/05 07:45:13;;;;;;;0.90;0.90;;;;;;;1.16;99.01;62120.41;4929060;29;20241;-79
2023/04/05 07:47:41;;;;;;;1.30;1.30;;;;;;;1.31;99.47;62134.78;4928539;29;20276;-79
2023/04/05 07:50:13;;;;;;;4.47;1.02;;;;;;;1.28;98.13;62129.19;4929893;29;20216;-78
2023/04/05 07:52:40;;;;;;;1.20;1.20;;;;;;;1.10;100.00;62111.75;4933036;29;20222;-76
2023/04/05 07:55:08;;;;;;;0.90;0.77;;;;;;;0.92;100.00;62090.78;4928139;29;20491;-77
2023/04/05 07:57:35;;;;;;;0.70;0.70;;;;;;;1.01;100.00;62102.53;4911519;29;20226;-76
2023/04/05 08:00:02;;;;;;;0.88;0.88;;;;;;;0.92;100.00;62092.78;4908501;29;20239;-78
2023/04/05 08:02:29;;;;;;;1.33;1.33;;;;;;;0.96;100.00;62094.38;4865494;29;1300412;-79
2023/04/05 08:04:58;;;;;;;0.90;0.90;;;;;;;1.27;100.00;62131.19;4917702;29;20396;-77
2023/04/05 08:07:25;;;;;;;1.05;1.00;;;;;;;1.32;100.00;62133.81;4909917;29;20306;-78
2023/04/05 08:09:56;;;;;;;0.90;0.90;;;;;;;1.30;99.20;62134.25;4909863;29;20215;-79
2023/04/05 08:12:23;;;;;;;1.10;0.98;;;;;;;1.33;99.92;62134.34;4910669;29;20219;-79
2023/04/05 08:14:50;;;;;;;0.95;0.95;;;;;;;1.13;100.00;62117.34;4918785;29;20198;-77
2023/04/05 08:17:17;;;;;;;0.82;0.82;;;;;;;0.90;100.00;62091.22;4930938;29;20293;-78
2023/04/05 08:19:44;;;;;;;1.40;1.30;;;;;;;1.11;100.00;62110.28;4932870;29;20190;-78
2023/04/05 08:22:12;;;;;;;0.93;0.93;;;;;;;1.10;100.00;62111.25;4936993;29;20529;-78
2023/04/05 08:24:39;;;;;;;2.47;1.27;;;;;;;1.04;100.00;62107.59;4922918;29;20523;-77
2023/04/05 08:27:06;;;;;;;1.00;1.00;;;;;;;1.00;100.00;62101.50;4913297;29;20238;-78
2023/04/05 08:29:33;;;;;;;3.08;1.20;;;;;;;1.13;100.00;62114.31;4914079;29;20230;-79
2023/04/05 08:32:00;;;;;;;1.38;1.38;;;;;;;1.28;100.00;62132.22;4913959;29;20258;-78
2023/04/05 08:34:27;;;;;;;1.10;1.05;;;;;;;1.32;100.00;62131.31;4920023;29;20220;-79
2023/04/05 08:36:57;;;;;;;1.52;1.48;;;;;;;1.33;100.00;62134.34;4924141;29;20455;-78
2023/04/05 08:39:25;;;;;;;1.23;1.17;;;;;;;1.34;100.00;62135.88;4927027;29;20214;-80
2023/04/05 08:41:59;;;;;;;1.88;1.25;;;;;;;1.19;100.00;62123.50;4932812;29;20228;-79
2023/04/05 08:44:30;;;;;;;2.17;1.98;;;;;;;1.13;100.00;62116.81;4924403;29;20202;-78
2023/04/05 08:47:00;;;;;;;3.13;1.17;;;;;;;1.30;100.00;62131.75;4913190;29;20238;-78
2023/04/05 08:49:28;;;;;;;2.47;1.35;;;;;;;1.03;100.00;62106.56;4913474;29;20254;-77
2023/04/05 08:51:55;;;;;;;1.60;1.50;;;;;;;1.13;100.00;62116.81;4929895;29;20293;-80
2023/04/05 08:54:22;;;;;;;1.75;1.13;;;;;;;1.11;100.00;62115.28;4930229;29;20265;-77
2023/04/05 08:56:53;;;;;;;1.90;1.80;;;;;;;1.22;100.00;62120.53;4933647;29;20250;-78
2023/04/05 08:59:21;;;;;;;1.08;1.08;;;;;;;1.28;100.00;62127.19;4930711;29;20285;-77
2023/04/05 09:01:51;;;;;;;1.88;1.50;;;;;;;1.34;100.00;62137.84;4915191;29;20230;-79
2023/04/05 09:04:22;;;;;;;1.65;1.35;;;;;;;1.38;100.00;62139.47;4913095;29;20262;-78
2023/04/05 09:06:50;;;;;;;1.17;1.17;;;;;;;1.33;100.00;62134.81;4914085;29;20266;-79
2023/04/05 09:09:18;;;;;;;3.10;1.92;;;;;;;1.45;100.00;62149.66;4914014;29;20254;-79
2023/04/05 09:11:45;;;;;;;1.58;1.48;;;;;;;1.40;100.00;62139.00;4917940;29;20258;-79
2023/04/05 09:14:14;;;;;;;1.30;1.20;;;;;;;1.63;97.80;62165.63;4932908;29;20210;-78
2023/04/05 09:16:42;;;;;;;1.30;1.30;;;;;;;1.78;98.19;62180.50;4933768;29;20292;-79
2023/04/05 09:19:10;;;;;;;1.58;1.58;;;;;;;1.71;100.00;62173.81;4933596;29;20238;-78
2023/04/05 09:21:59;;;;;;;1.60;1.60;;;;;;;1.36;100.00;62137.41;4933246;29;20253;-78
2023/04/05 09:24:32;;;;;;;1.77;1.20;;;;;;;1.01;100.00;62100.03;4934577;29;20218;-78
2023/04/05 09:27:07;;;;;;;1.40;0.88;;;;;;;1.38;100.00;62139.97;4932974;29;20233;-79
2023/04/05 09:29:36;;;;;;;2.30;1.80;;;;;;;1.39;100.00;62141.00;4932900;29;20201;-78
2023/04/05 09:32:03;;;;;;;1.27;1.27;;;;;;;1.38;100.00;62139.97;4932327;29;20222;-79
2023/04/05 09:34:32;;;;;;;2.13;1.73;;;;;;;1.52;100.00;62156.84;4932699;29;20201;-78
2023/04/05 09:36:59;;;;;;;2.25;2.15;;;;;;;1.73;100.00;62172.84;4914676;29;20238;-79
2023/04/05 09:39:31;;;;;;;1.95;1.85;;;;;;;1.73;100.00;62175.88;4914725;29;20207;-79
2023/04/05 09:42:06;;;;;;;2.50;2.40;;;;;;;1.81;100.00;62186.59;4915914;29;20227;-79
2023/04/05 09:44:54;;;;;;;1.65;1.33;;;;;;;1.93;100.00;62195.91;4921575;29;20217;-78
2023/04/05 09:47:23;;;;;;;2.05;1.98;;;;;;;1.80;100.00;62180.03;4933258;29;20258;-79
2023/04/05 09:49:51;;;;;;;3.80;3.45;;;;;;;2.11;100.00;62217.41;4928433;29;20198;-81
2023/04/05 09:52:22;;;;;;;2.20;1.77;;;;;;;2.23;100.00;62226.69;4914748;29;20461;-78
2023/04/05 09:54:51;;;;;;;8.57;2.03;;;;;;;1.54;100.00;62155.88;4917912;29;20210;-80
2023/04/05 09:57:19;;;;;;;19.90;11.63;;;;;;;1.43;100.00;62140.09;4933761;29;20345;-82
2023/04/05 09:59:46;;;;;;;3.28;3.00;;;;;;;1.82;100.00;62182.09;4930376;29;20205;-82
2023/04/05 10:02:15;;;;;;;2.95;2.67;;;;;;;1.94;100.00;62201.94;4932223;29;20270;-79
2023/04/05 10:04:44;;;;;;;3.85;2.17;;;;;;;1.76;100.00;62180.97;4932294;29;20207;-80
2023/04/05 10:07:13;;;;;;;2.17;2.05;;;;;;;1.61;100.00;62163.56;4933361;29;20460;-80
2023/04/05 10:09:41;;;;;;;2.10;2.00;;;;;;;1.49;100.00;62153.25;4932866;29;20225;-80
2023/04/05 10:12:10;;;;;;;2.42;1.92;;;;;;;1.79;100.00;62182.06;4932824;29;20226;-81
2023/04/05 10:14:37;;;;;;;2.17;2.00;;;;;;;1.88;97.78;62188.25;4930573;29;20198;-82
2023/04/05 10:17:09;;;;;;;13.63;2.65;;;;;;;1.75;97.21;62175.44;4931714;29;20276;-77
2023/04/05 10:20:01;;;;;;;2.28;2.17;;;;;;;2.23;96.79;62227.22;4931577;29;20230;-80
2023/04/05 10:22:33;;;;;;;3.03;2.78;;;;;;;2.16;93.97;62219.50;4934889;29;20222;-82
2023/04/05 10:25:06;;;;;;;2.33;2.22;;;;;;;2.09;95.26;62214.84;4929720;29;20464;-79
2023/04/05 10:27:39;;;;;;;2.75;2.55;;;;;;;2.33;92.03;62237.50;4932635;29;20264;-80
2023/04/05 10:30:08;;;;;;;2.83;2.63;;;;;;;2.05;94.47;62208.72;4927078;29;20557;-81
2023/04/05 10:32:51;;;;;;;2.33;2.22;;;;;;;1.55;97.89;62157.41;4932295;29;20426;-78
2023/04/05 10:35:25;;;;;;;2.65;2.50;;;;;;;1.19;100.00;62120.97;4931204;29;20240;-79
2023/04/05 10:38:09;;;;;;;3.08;2.80;;;;;;;1.03;100.00;62107.09;4932883;29;20250;-81
2023/04/05 10:40:37;;;;;;;2.10;2.00;;;;;;;0.99;100.00;62102.97;4932806;29;20198;-79
2023/04/05 10:43:07;;;;;;;2.75;2.53;;;;;;;1.11;100.00;62112.78;4930122;29;20470;-79
2023/04/05 10:45:36;;;;;;;2.80;2.60;;;;;;;1.16;99.77;62112.91;4932573;29;20295;-79
2023/04/05 10:48:15;;;;;;;2.80;2.60;;;;;;;1.05;100.00;62109.13;4922192;29;20238;-81
2023/04/05 10:50:47;;;;;;;2.90;2.70;;;;;;;1.42;100.00;62141.56;4912830;29;20202;-78
2023/04/05 10:53:17;;;;;;;2.42;2.33;;;;;;;1.32;99.35;62135.78;4915379;29;20230;-80
2023/04/05 10:55:44;;;;;;;3.58;2.97;;;;;;;1.15;100.00;62114.38;4916324;29;20255;-78
2023/04/05 10:58:13;;;;;;;2.78;2.58;;;;;;;1.20;100.00;62124.00;4913756;29;20257;-78
2023/04/05 11:00:41;;;;;;;3.35;2.60;;;;;;;1.38;100.00;62134.44;4918272;29;20443;-79
2023/04/05 11:03:08;;;;;;;4.00;3.70;;;;;;;1.53;100.00;62152.34;4933532;29;20230;-78
2023/04/05 11:05:36;;;;;;;3.53;3.22;;;;;;;1.60;98.07;62162.03;4923898;29;20225;-77
2023/04/05 11:08:07;;;;;;;3.58;3.38;;;;;;;2.02;97.63;62208.16;4915556;29;20235;-81
2023/04/05 11:10:38;;;;;;;4.95;2.97;;;;;;;1.89;97.62;62194.31;4926474;29;20242;-80
2023/04/05 11:13:10;;;;;;;3.65;3.00;;;;;;;1.61;95.92;62163.56;4935051;29;20222;-81
2023/04/05 11:15:38;;;;;;;3.53;3.30;;;;;;;2.13;96.11;62216.44;4919007;29;20250;-81
2023/04/05 11:18:07;;;;;;;3.45;3.20;;;;;;;2.17;96.40;62223.56;4928458;29;20230;-81
2023/04/05 11:20:42;;;;;;;3.55;3.25;;;;;;;2.59;90.94;62265.69;4932222;29;20207;-81
2023/04/05 11:23:12;;;;;;;3.88;3.40;;;;;;;2.10;93.30;62213.34;4927476;29;20288;-80
2023/04/05 11:25:41;;;;;;;5.15;4.15;;;;;;;1.90;98.82;62190.31;4923410;29;20269;-80
2023/04/05 11:28:09;;;;;;;3.70;3.50;;;;;;;2.28;95.57;62231.84;4917464;29;20231;-81
2023/04/05 11:30:50;;;;;;;3.38;2.78;;;;;;;2.36;94.26;62243.06;4922405;29;20213;-81
2023/04/05 11:33:37;;;;;;;4.20;3.85;;;;;;;2.59;92.71;62266.19;4929754;29;20249;-80
2023/04/05 11:36:05;;;;;;;4.07;3.67;;;;;;;2.84;92.45;62291.88;4929866;29;20225;-81
2023/04/05 11:38:33;;;;;;;2.72;2.63;;;;;;;2.32;91.63;62233.97;4931391;29;20222;-80
2023/04/05 11:41:07;;;;;;;3.67;3.47;;;;;;;2.51;93.52;62254.94;4930517;29;20198;-82
2023/04/05 11:43:37;;;;;;;3.60;3.30;;;;;;;2.79;90.87;62284.25;4933059;29;20284;-80
2023/04/05 11:46:04;;;;;;;4.20;3.90;;;;;;;2.76;92.93;62286.16;4930314;29;20202;-79
2023/04/05 11:48:31;;;;;;;4.43;4.07;;;;;;;3.00;92.39;62308.31;4927754;29;20833;-80